Time;durP1;ratioP1;P1;durP2;ratioP2;P2;SDS_P1;SDS_P2;PMS_P1;PMS_P2;Temp;Humidity;BMP_temperature;BMP_pressure;BME280_temperature;BME280_humidity;BME280_pressure;Samples;Min_cycle;Max_cycle;Signal;HPM_P1;HPM_P2
2023/03/28 00:00:49;;;;;;;71.80;8.95;;;2.90;99.90;;;;;;5036827;28;20185;-81
2023/03/28 00:03:17;;;;;;;74.93;9.75;;;2.90;99.90;;;;;;5036593;28;20185;-81
2023/03/28 00:05:54;;;;;;;70.97;9.30;;;2.80;99.90;;;;;;5037184;28;20161;-81
2023/03/28 00:08:20;;;;;;;76.90;8.82;;;2.90;99.00;;;;;;5036363;28;20199;-81
2023/03/28 00:10:46;;;;;;;76.43;10.18;;;3.00;98.50;;;;;;5148634;22;20212;-81
2023/03/28 00:15:45;;;;;;;68.30;9.65;;;2.90;99.90;;;;;;5015079;28;20260;-81
2023/03/28 00:18:11;;;;;;;69.03;9.25;;;3.00;98.50;;;;;;5016405;28;20217;-81
2023/03/28 00:20:39;;;;;;;68.23;9.23;;;2.90;99.90;;;;;;5015850;28;20198;-81
2023/03/28 00:23:04;;;;;;;76.00;9.55;;;2.90;99.90;;;;;;5015817;28;20174;-81
2023/03/28 00:25:34;;;;;;;72.70;11.60;;;2.80;99.90;;;;;;5016516;28;20502;-81
2023/03/28 00:28:00;;;;;;;69.22;9.77;;;2.80;99.90;;;;;;5019260;28;20811;-81
2023/03/28 00:30:26;;;;;;;68.25;10.35;;;2.80;99.90;;;;;;5019971;28;20169;-81
2023/03/28 00:32:52;;;;;;;71.77;9.17;;;2.80;99.90;;;;;;5020454;28;20204;-81
2023/03/28 00:35:17;;;;;;;67.53;10.03;;;2.70;99.90;;;;;;5020014;28;20227;-81
2023/03/28 00:37:44;;;;;;;83.23;11.00;;;2.80;99.90;;;;;;5018571;28;20566;-81
2023/03/28 00:40:13;;;;;;;73.50;10.50;;;2.70;99.90;;;;;;5019610;28;20185;-81
2023/03/28 00:42:42;;;;;;;73.68;9.88;;;2.70;99.90;;;;;;5018564;28;20186;-81
2023/03/28 00:45:10;;;;;;;78.85;10.65;;;2.70;99.90;;;;;;5019631;28;20224;-81
2023/03/28 00:47:50;;;;;;;69.03;9.95;;;2.70;99.90;;;;;;5018748;28;20637;-81
2023/03/28 00:50:21;;;;;;;71.65;9.30;;;2.70;99.90;;;;;;5019902;28;20578;-81
2023/03/28 00:52:57;;;;;;;69.13;10.60;;;2.60;99.90;;;;;;5017897;28;20186;-81
2023/03/28 00:55:29;;;;;;;68.30;10.45;;;2.50;99.90;;;;;;5020115;28;20157;-81
2023/03/28 00:57:58;;;;;;;71.38;9.90;;;2.30;99.90;;;;;;5018230;28;20168;-81
2023/03/28 01:00:24;;;;;;;67.60;10.45;;;2.30;99.90;;;;;;5019418;28;20211;-81
2023/03/28 01:02:53;;;;;;;67.60;10.40;;;2.20;99.90;;;;;;5019896;28;20182;-81
2023/03/28 01:05:26;;;;;;;69.78;10.68;;;2.10;99.90;;;;;;5019621;28;20193;-81
2023/03/28 01:07:57;;;;;;;73.70;12.73;;;2.10;99.90;;;;;;5019730;28;20226;-81
2023/03/28 01:10:23;;;;;;;75.50;11.82;;;2.00;99.90;;;;;;5020036;28;20752;-82
2023/03/28 01:12:51;;;;;;;70.80;13.45;;;2.00;99.90;;;;;;5018955;28;20186;-81
2023/03/28 01:15:17;;;;;;;69.65;10.18;;;2.00;99.90;;;;;;5019207;28;20557;-81
2023/03/28 01:17:45;;;;;;;70.80;11.13;;;1.90;99.90;;;;;;5018447;28;20170;-81
2023/03/28 01:20:25;;;;;;;70.72;11.40;;;1.90;99.90;;;;;;5017865;28;20244;-81
2023/03/28 01:23:25;;;;;;;75.93;10.63;;;1.80;99.90;;;;;;5017958;28;20188;-81
2023/03/28 01:26:05;;;;;;;73.25;10.57;;;1.80;99.90;;;;;;5019598;28;20164;-81
2023/03/28 01:28:43;;;;;;;70.85;12.30;;;1.70;99.90;;;;;;5017661;28;20633;-81
2023/03/28 01:31:26;;;;;;;72.72;13.52;;;1.60;99.90;;;;;;5019217;28;20165;-81
2023/03/28 01:34:33;;;;;;;77.20;12.65;;;1.60;99.90;;;;;;5018709;28;20197;-81
2023/03/28 01:37:33;;;;;;;73.03;10.32;;;1.50;99.90;;;;;;5019147;28;20173;-81
2023/03/28 01:40:16;;;;;;;74.30;12.82;;;1.50;99.90;;;;;;5019306;28;20177;-81
2023/03/28 01:42:52;;;;;;;68.68;11.50;;;1.40;99.90;;;;;;5018891;28;20182;-81
2023/03/28 01:45:21;;;;;;;70.68;10.88;;;1.40;99.90;;;;;;5017601;28;20161;-81
2023/03/28 01:48:31;;;;;;;69.00;11.00;;;1.30;99.90;;;;;;5018604;28;20173;-81
2023/03/28 01:51:02;;;;;;;71.25;11.95;;;1.30;99.90;;;;;;4995794;28;20182;-81
2023/03/28 01:53:46;;;;;;;74.68;12.18;;;1.30;99.90;;;;;;5017512;28;20190;-81
2023/03/28 01:56:36;;;;;;;70.63;12.65;;;1.30;99.90;;;;;;5018738;28;20564;-81
2023/03/28 01:59:26;;;;;;;69.50;11.73;;;1.30;99.90;;;;;;5019357;28;20150;-81
2023/03/28 02:02:36;;;;;;;67.63;11.05;;;1.30;99.90;;;;;;5018837;28;20212;-82
2023/03/28 02:05:07;;;;;;;76.45;11.90;;;1.30;99.90;;;;;;5007829;28;20177;-81
2023/03/28 02:07:33;;;;;;;69.60;11.45;;;1.30;99.90;;;;;;5018940;28;20146;-81
2023/03/28 02:10:02;;;;;;;69.55;12.15;;;1.20;99.90;;;;;;5018262;28;20212;-81
2023/03/28 02:12:37;;;;;;;68.18;10.57;;;1.30;99.90;;;;;;5018353;28;20185;-81
2023/03/28 02:15:07;;;;;;;76.13;11.52;;;1.30;99.90;;;;;;5017332;28;20209;-81
2023/03/28 02:17:42;;;;;;;69.40;12.73;;;1.40;99.90;;;;;;5018728;28;20166;-81
2023/03/28 02:20:13;;;;;;;71.85;12.40;;;1.40;99.90;;;;;;5018351;28;20181;-81
2023/03/28 02:22:59;;;;;;;69.45;12.15;;;1.40;99.90;;;;;;5018615;28;20177;-81
2023/03/28 02:25:25;;;;;;;72.00;12.40;;;1.40;99.90;;;;;;5018656;28;20557;-81
2023/03/28 02:27:56;;;;;;;71.57;13.07;;;1.40;99.90;;;;;;5018541;28;20166;-82
2023/03/28 02:30:22;;;;;;;72.93;11.82;;;1.40;99.90;;;;;;5016673;28;20409;-81
2023/03/28 02:32:49;;;;;;;70.97;12.63;;;1.40;99.90;;;;;;5016525;28;20190;-82
2023/03/28 02:35:17;;;;;;;73.40;10.82;;;1.30;99.90;;;;;;5017040;28;20413;-81
2023/03/28 02:37:43;;;;;;;68.75;13.15;;;1.20;99.90;;;;;;5018247;28;20166;-81
2023/03/28 02:40:24;;;;;;;79.73;13.33;;;1.30;99.90;;;;;;5016547;28;20252;-81
2023/03/28 02:42:53;;;;;;;68.78;13.20;;;1.20;99.90;;;;;;5018278;28;20602;-82
2023/03/28 02:45:42;;;;;;;68.90;13.05;;;1.20;99.90;;;;;;5018400;28;20623;-81
2023/03/28 02:48:29;;;;;;;68.80;12.50;;;1.10;99.90;;;;;;5018199;28;20159;-82
2023/03/28 02:51:16;;;;;;;68.82;12.02;;;1.10;99.90;;;;;;5017129;28;20154;-81
2023/03/28 02:53:52;;;;;;;79.90;12.18;;;1.10;99.90;;;;;;5018172;28;20265;-82
2023/03/28 02:56:40;;;;;;;70.60;14.00;;;1.00;99.90;;;;;;5016327;28;20153;-82
2023/03/28 02:59:17;;;;;;;71.75;13.02;;;1.00;99.90;;;;;;5016554;28;20176;-82
2023/03/28 03:01:43;;;;;;;76.18;14.82;;;1.00;99.90;;;;;;5017734;28;20176;-81
2023/03/28 03:04:12;;;;;;;70.00;13.20;;;0.90;99.90;;;;;;5017987;28;20198;-81
2023/03/28 03:06:38;;;;;;;69.72;14.15;;;1.00;99.90;;;;;;5016534;28;20165;-82
2023/03/28 03:09:04;;;;;;;72.25;13.45;;;1.00;99.90;;;;;;5017520;28;20577;-82
2023/03/28 03:11:30;;;;;;;73.20;13.30;;;1.00;99.90;;;;;;5017321;28;20169;-82
2023/03/28 03:13:58;;;;;;;69.28;15.52;;;1.00;99.90;;;;;;5015746;28;21043;-81
2023/03/28 03:16:24;;;;;;;73.03;15.23;;;0.90;99.90;;;;;;5015939;28;20178;-81
2023/03/28 03:18:50;;;;;;;70.83;16.13;;;1.00;99.90;;;;;;5016246;28;20177;-81
2023/03/28 03:21:16;;;;;;;71.07;15.17;;;1.00;99.90;;;;;;5016776;28;20190;-82
2023/03/28 03:23:42;;;;;;;72.05;16.38;;;1.20;99.90;;;;;;5016956;28;20208;-81
2023/03/28 03:26:08;;;;;;;72.53;16.10;;;1.30;99.90;;;;;;5017372;28;20162;-81
2023/03/28 03:28:33;;;;;;;73.67;15.13;;;1.30;99.90;;;;;;5017832;28;20166;-81
2023/03/28 03:30:59;;;;;;;75.93;16.07;;;1.30;99.90;;;;;;5017179;28;20170;-81
2023/03/28 03:33:25;;;;;;;76.68;15.57;;;1.40;99.90;;;;;;5017303;28;20214;-81
2023/03/28 03:35:52;;;;;;;74.00;16.60;;;1.40;99.90;;;;;;5017555;28;20166;-81
2023/03/28 03:38:17;;;;;;;72.25;15.27;;;1.40;99.90;;;;;;5017198;28;20510;-81
2023/03/28 03:40:43;;;;;;;71.40;16.97;;;1.40;99.90;;;;;;5016659;28;20194;-82
2023/03/28 03:43:09;;;;;;;75.47;14.97;;;1.40;99.90;;;;;;5016741;28;20197;-81
2023/03/28 03:45:36;;;;;;;75.40;18.10;;;1.50;99.90;;;;;;5015314;28;20170;-82
2023/03/28 03:48:02;;;;;;;70.50;14.55;;;1.40;99.90;;;;;;5017121;28;20923;-81
2023/03/28 03:50:28;;;;;;;75.00;15.53;;;1.40;99.90;;;;;;5015503;28;20172;-81
2023/03/28 03:52:53;;;;;;;71.00;16.53;;;1.50;99.90;;;;;;5016762;28;20440;-81
2023/03/28 03:55:25;;;;;;;69.87;13.70;;;1.50;99.90;;;;;;5016016;28;20177;-81
2023/03/28 03:58:49;;;;;;;72.00;14.35;;;1.50;99.90;;;;;;5016929;28;20174;-82
2023/03/28 04:00:50;;;;;;;73.93;14.20;;;1.50;99.90;;;;;;5009388;28;20210;-82
2023/03/28 04:03:16;;;;;;;74.75;16.05;;;1.40;99.90;;;;;;5018787;28;20276;-81
2023/03/28 04:05:42;;;;;;;72.47;15.60;;;1.30;99.90;;;;;;5020218;28;20244;-81
2023/03/28 04:08:08;;;;;;;74.40;15.73;;;1.20;99.90;;;;;;5020049;28;20459;-82
2023/03/28 04:10:33;;;;;;;71.43;15.27;;;1.10;99.90;;;;;;5020271;28;20176;-81
2023/03/28 04:12:59;;;;;;;70.13;14.10;;;1.10;99.90;;;;;;5019382;28;20198;-82
2023/03/28 04:17:57;;;;;;;70.25;15.48;;;1.00;99.90;;;;;;5212777;22;20225;-81
2023/03/28 04:20:25;;;;;;;73.00;15.43;;;0.90;99.90;;;;;;5020550;28;20193;-81
2023/03/28 04:22:52;;;;;;;70.95;12.88;;;0.80;99.90;;;;;;5019145;28;20182;-82
2023/03/28 04:25:18;;;;;;;69.80;11.80;;;0.80;99.90;;;;;;5020774;28;20208;-81
2023/03/28 04:27:47;;;;;;;70.55;12.73;;;0.80;99.90;;;;;;5021273;28;20170;-82
2023/03/28 04:30:16;;;;;;;75.75;13.30;;;0.70;99.90;;;;;;5018740;28;20201;-81
2023/03/28 04:32:43;;;;;;;71.07;14.25;;;0.70;99.90;;;;;;5019201;28;20192;-82
2023/03/28 04:35:11;;;;;;;69.15;13.85;;;0.60;99.90;;;;;;5020333;28;20304;-82
2023/03/28 04:37:39;;;;;;;72.13;15.52;;;0.60;99.90;;;;;;5020379;28;20169;-82
2023/03/28 04:40:15;;;;;;;69.50;14.05;;;0.60;99.90;;;;;;5020089;28;20193;-82
2023/03/28 04:42:41;;;;;;;73.47;15.00;;;0.60;99.90;;;;;;5020574;28;20195;-81
2023/03/28 04:45:10;;;;;;;74.22;11.93;;;0.60;99.90;;;;;;5019750;28;20173;-81
2023/03/28 04:47:38;;;;;;;70.88;11.50;;;0.70;99.90;;;;;;5019891;28;20197;-82
2023/03/28 04:50:05;;;;;;;77.75;12.60;;;0.80;99.90;;;;;;5019760;28;20174;-81
2023/03/28 04:52:31;;;;;;;69.93;14.00;;;0.90;99.90;;;;;;5020018;28;20604;-81
2023/03/28 04:54:57;;;;;;;72.40;12.77;;;0.90;99.90;;;;;;5019678;28;20168;-81
2023/03/28 04:57:22;;;;;;;71.73;14.40;;;0.90;99.90;;;;;;5019015;28;20170;-81
2023/03/28 04:59:48;;;;;;;79.70;16.73;;;1.00;99.90;;;;;;5018239;28;20190;-81
2023/03/28 05:02:14;;;;;;;72.77;16.27;;;1.10;99.90;;;;;;5019351;28;20166;-81
2023/03/28 05:04:41;;;;;;;76.43;14.60;;;1.10;99.90;;;;;;5019637;28;20534;-81
2023/03/28 05:07:07;;;;;;;71.13;13.50;;;1.10;99.90;;;;;;5019649;28;20649;-81
2023/03/28 05:09:32;;;;;;;79.40;14.37;;;1.10;99.90;;;;;;5018073;28;20252;-81
2023/03/28 05:11:58;;;;;;;87.13;14.43;;;1.10;99.90;;;;;;5017748;28;20435;-81
2023/03/28 05:14:24;;;;;;;77.70;15.20;;;1.10;99.90;;;;;;5018991;28;20196;-81
2023/03/28 05:16:49;;;;;;;74.03;16.17;;;1.20;99.90;;;;;;5019249;28;20627;-82
2023/03/28 05:19:16;;;;;;;74.10;14.20;;;1.20;99.90;;;;;;5019413;28;20664;-81
2023/03/28 05:21:42;;;;;;;76.53;16.88;;;1.10;99.90;;;;;;5019022;28;20657;-81
2023/03/28 05:24:08;;;;;;;73.87;14.50;;;1.10;99.90;;;;;;5019001;28;20186;-82
2023/03/28 05:26:37;;;;;;;70.83;12.50;;;1.00;99.90;;;;;;5018913;28;20166;-81
2023/03/28 05:29:02;;;;;;;72.03;14.25;;;1.00;99.90;;;;;;5018647;28;20165;-81
2023/03/28 05:31:40;;;;;;;76.80;14.10;;;1.00;99.90;;;;;;5017741;28;20170;-82
2023/03/28 05:34:08;;;;;;;75.57;14.25;;;0.90;99.90;;;;;;5019177;28;20431;-82
2023/03/28 05:36:34;;;;;;;72.97;12.38;;;1.00;99.90;;;;;;5017475;28;20673;-82
2023/03/28 05:39:00;;;;;;;70.10;13.77;;;1.00;99.90;;;;;;5018940;28;20276;-82
2023/03/28 05:41:26;;;;;;;75.87;16.80;;;0.90;99.90;;;;;;5017201;28;20661;-81
2023/03/28 05:43:52;;;;;;;75.20;14.48;;;0.90;99.90;;;;;;5019114;28;20197;-81
2023/03/28 05:46:18;;;;;;;80.63;13.73;;;0.90;99.90;;;;;;5019365;28;20530;-81
2023/03/28 05:48:43;;;;;;;76.40;13.40;;;0.80;99.90;;;;;;5019541;28;20664;-81
2023/03/28 05:51:09;;;;;;;69.40;14.73;;;0.80;99.90;;;;;;5019388;28;20633;-82
2023/03/28 05:53:35;;;;;;;72.40;14.37;;;0.80;99.90;;;;;;5034227;22;20301;-81
2023/03/28 05:56:00;;;;;;;74.97;15.40;;;0.80;99.90;;;;;;5018933;28;20169;-82
2023/03/28 05:58:26;;;;;;;72.13;13.40;;;0.70;99.90;;;;;;5018496;28;20169;-82
2023/03/28 06:00:51;;;;;;;71.00;13.20;;;0.70;99.90;;;;;;5019671;28;20198;-81
2023/03/28 06:03:17;;;;;;;75.03;16.50;;;0.70;99.90;;;;;;5019534;28;20189;-81
2023/03/28 06:05:43;;;;;;;75.20;15.40;;;0.80;99.90;;;;;;5020249;28;20162;-81
2023/03/28 06:08:09;;;;;;;74.70;15.03;;;0.90;99.90;;;;;;5019779;28;20435;-81
2023/03/28 06:10:35;;;;;;;77.03;16.30;;;0.90;99.90;;;;;;5018932;28;20451;-80
2023/03/28 06:13:01;;;;;;;72.88;15.07;;;0.80;99.90;;;;;;5019520;28;20192;-81
2023/03/28 06:15:26;;;;;;;70.97;14.13;;;0.90;99.90;;;;;;5019851;28;20198;-81
2023/03/28 06:17:52;;;;;;;74.60;12.90;;;1.00;99.90;;;;;;5019369;28;20216;-81
2023/03/28 06:20:18;;;;;;;84.37;13.83;;;1.10;99.90;;;;;;5018270;28;20212;-81
2023/03/28 06:22:43;;;;;;;76.53;13.70;;;1.20;99.90;;;;;;5018969;28;20186;-81
2023/03/28 06:25:09;;;;;;;80.87;16.70;;;1.20;99.90;;;;;;5019040;28;20173;-81
2023/03/28 06:27:35;;;;;;;72.20;14.43;;;1.30;99.90;;;;;;5019650;28;20188;-82
2023/03/28 06:30:03;;;;;;;73.27;15.37;;;1.40;99.90;;;;;;5018854;28;20273;-82
2023/03/28 06:32:29;;;;;;;72.30;15.68;;;1.40;99.90;;;;;;5019600;28;20189;-81
2023/03/28 06:34:55;;;;;;;75.43;14.07;;;1.40;99.90;;;;;;5018742;28;20204;-81
2023/03/28 06:37:20;;;;;;;74.30;14.93;;;1.40;99.90;;;;;;5019813;28;20166;-81
2023/03/28 06:39:49;;;;;;;76.70;13.40;;;1.50;99.90;;;;;;5019679;28;20197;-82
2023/03/28 06:42:15;;;;;;;76.35;15.43;;;1.60;99.90;;;;;;5017817;28;20554;-82
2023/03/28 06:44:41;;;;;;;88.32;16.77;;;1.60;99.90;;;;;;5017872;28;20169;-82
2023/03/28 06:47:07;;;;;;;77.53;15.70;;;1.70;99.90;;;;;;5018960;28;20193;-79
2023/03/28 06:49:33;;;;;;;78.10;14.30;;;1.80;99.90;;;;;;5018365;28;20405;-82
2023/03/28 06:51:59;;;;;;;81.00;14.87;;;1.90;99.90;;;;;;5019450;28;20416;-82
2023/03/28 06:54:24;;;;;;;81.33;15.67;;;2.00;99.90;;;;;;5018941;28;20421;-81
2023/03/28 06:56:50;;;;;;;76.10;16.33;;;2.00;99.90;;;;;;5017523;28;20169;-82
2023/03/28 06:59:16;;;;;;;77.57;15.40;;;2.10;99.90;;;;;;5018686;28;20193;-81
2023/03/28 07:01:41;;;;;;;77.73;19.50;;;2.10;99.90;;;;;;5019045;28;20217;-82
2023/03/28 07:04:07;;;;;;;74.97;15.03;;;2.10;99.90;;;;;;5019195;28;20241;-81
2023/03/28 07:06:33;;;;;;;75.73;18.80;;;2.20;99.90;;;;;;5018840;28;20162;-82
2023/03/28 07:08:59;;;;;;;78.20;20.50;;;2.30;99.90;;;;;;5018425;28;20173;-82
2023/03/28 07:11:25;;;;;;;75.97;19.80;;;2.40;99.90;;;;;;5018843;28;20249;-82
2023/03/28 07:13:51;;;;;;;78.47;21.67;;;2.50;99.90;;;;;;5018893;28;20217;-82
2023/03/28 07:16:17;;;;;;;77.50;18.37;;;2.50;99.90;;;;;;5019250;28;20281;-82
2023/03/28 07:18:43;;;;;;;75.10;17.25;;;2.50;99.90;;;;;;5017551;28;20173;-82
2023/03/28 07:21:11;;;;;;;77.60;20.07;;;2.50;99.90;;;;;;5019222;28;20190;-82
2023/03/28 07:23:40;;;;;;;75.10;17.73;;;2.70;99.90;;;;;;5018263;28;20524;-81
2023/03/28 07:26:07;;;;;;;81.85;18.58;;;2.80;99.90;;;;;;5018226;28;20254;-82
2023/03/28 07:28:34;;;;;;;81.38;17.02;;;2.80;99.90;;;;;;5018528;28;20165;-81
2023/03/28 07:31:00;;;;;;;79.53;21.60;;;2.90;99.90;;;;;;5018823;28;20236;-82
2023/03/28 07:33:26;;;;;;;74.03;16.50;;;3.10;99.90;;;;;;5018394;28;20557;-81
2023/03/28 07:35:52;;;;;;;77.23;17.20;;;3.20;99.90;;;;;;5018207;28;20652;-82
2023/03/28 07:38:18;;;;;;;79.77;17.90;;;3.30;99.90;;;;;;5017014;28;20835;-82
2023/03/28 07:40:44;;;;;;;74.17;18.23;;;3.40;99.90;;;;;;5018973;28;20198;-82
2023/03/28 07:43:10;;;;;;;75.18;13.40;;;3.40;99.90;;;;;;5018186;28;20178;-82
2023/03/28 07:45:36;;;;;;;84.83;10.73;;;3.60;99.90;;;;;;5018350;28;20162;-82
2023/03/28 07:48:02;;;;;;;71.03;9.83;;;3.60;99.90;;;;;;5018448;28;20170;-82
2023/03/28 07:50:28;;;;;;;77.50;11.98;;;3.60;99.90;;;;;;5018469;28;20412;-82
2023/03/28 07:52:56;;;;;;;73.37;14.13;;;3.60;99.90;;;;;;5018342;28;20201;-82
2023/03/28 07:55:24;;;;;;;75.78;11.27;;;3.70;99.90;;;;;;5017051;28;20417;-82
2023/03/28 07:57:50;;;;;;;78.40;10.80;;;3.70;99.90;;;;;;5017216;28;20169;-82
2023/03/28 08:00:16;;;;;;;78.45;10.13;;;3.80;99.90;;;;;;5018787;28;20197;-82
2023/03/28 08:02:42;;;;;;;77.55;11.00;;;3.80;99.90;;;;;;5017315;28;20542;-82
2023/03/28 08:05:08;;;;;;;70.60;9.05;;;3.90;99.90;;;;;;5018203;28;20161;-82
2023/03/28 08:07:34;;;;;;;76.47;9.27;;;3.90;99.90;;;;;;5018612;28;20173;-83
2023/03/28 08:10:00;;;;;;;72.63;9.97;;;4.00;99.90;;;;;;5018539;28;20273;-82
2023/03/28 08:12:26;;;;;;;80.05;10.75;;;4.00;99.60;;;;;;5018382;28;20874;-82
2023/03/28 08:14:52;;;;;;;77.20;8.90;;;4.10;98.90;;;;;;5018261;28;20162;-81
2023/03/28 08:17:18;;;;;;;80.43;9.27;;;4.10;97.80;;;;;;5018430;28;20626;-82
2023/03/28 08:19:44;;;;;;;73.47;8.87;;;4.20;95.90;;;;;;5019145;28;20169;-82
2023/03/28 08:22:11;;;;;;;73.72;7.88;;;4.20;93.20;;;;;;5018699;28;20162;-82
2023/03/28 08:24:37;;;;;;;76.75;8.07;;;4.30;95.00;;;;;;5017886;28;20254;-82
2023/03/28 08:27:03;;;;;;;76.22;8.80;;;4.30;92.00;;;;;;5019376;28;20177;-82
2023/03/28 08:29:29;;;;;;;76.95;8.75;;;4.40;93.50;;;;;;5018297;28;20165;-82
2023/03/28 08:31:56;;;;;;;71.40;7.53;;;4.50;91.60;;;;;;5018237;28;20216;-82
2023/03/28 08:34:22;;;;;;;75.68;8.30;;;4.60;91.30;;;;;;5016666;28;20205;-82
2023/03/28 08:36:48;;;;;;;81.03;9.27;;;4.70;88.60;;;;;;5016799;28;20173;-82
2023/03/28 08:39:14;;;;;;;69.32;6.75;;;4.70;83.10;;;;;;5017185;28;20166;-82
2023/03/28 08:42:10;;;;;;;69.53;7.13;;;4.80;80.10;;;;;;5018121;28;20192;-82
2023/03/28 08:44:50;;;;;;;76.28;7.45;;;4.80;79.80;;;;;;5016357;28;20405;-82
2023/03/28 08:47:27;;;;;;;82.40;6.90;;;4.80;65.40;;;;;;5017451;28;20662;-82
2023/03/28 08:50:26;;;;;;;75.78;7.13;;;4.90;63.30;;;;;;5021810;28;20161;-82
2023/03/28 08:52:52;;;;;;;73.18;6.05;;;5.00;52.80;;;;;;5001828;28;20241;-82
2023/03/28 08:55:39;;;;;;;70.57;6.22;;;5.20;53.00;;;;;;5021945;28;20201;-82
2023/03/28 08:58:09;;;;;;;74.00;6.10;;;5.40;47.40;;;;;;5020276;28;20166;-82
2023/03/28 09:00:36;;;;;;;68.05;5.15;;;5.60;40.90;;;;;;5021028;28;20193;-82
2023/03/28 09:03:10;;;;;;;68.20;5.13;;;5.70;37.80;;;;;;5021460;28;20224;-82
2023/03/28 09:06:00;;;;;;;68.88;4.82;;;5.90;29.20;;;;;;5021202;28;20196;-82
2023/03/28 09:08:44;;;;;;;77.18;6.38;;;6.00;25.50;;;;;;5021049;28;20173;-82
2023/03/28 09:11:25;;;;;;;73.82;5.55;;;6.20;20.70;;;;;;5019640;28;20201;-82
2023/03/28 09:14:06;;;;;;;71.05;5.32;;;6.20;13.80;;;;;;5019711;28;20576;-82
2023/03/28 09:16:52;;;;;;;70.57;5.30;;;6.40;15.80;;;;;;5019344;28;20173;-82
2023/03/28 09:19:27;;;;;;;72.15;5.97;;;6.30;1.00;;;;;;5021325;28;20246;-82
2023/03/28 09:22:14;;;;;;;70.30;5.05;;;6.10;1.00;;;;;;5019594;28;20189;-82
2023/03/28 09:24:46;;;;;;;69.90;5.13;;;6.10;1.00;;;;;;5019527;28;20169;-82
2023/03/28 09:27:24;;;;;;;67.18;3.90;;;6.20;1.00;;;;;;5020833;28;20196;-82
2023/03/28 09:29:53;;;;;;;68.03;4.72;;;6.30;1.00;;;;;;5019412;28;20247;-82
2023/03/28 09:32:31;;;;;;;67.57;4.82;;;6.30;1.00;;;;;;5020556;28;20164;-82
2023/03/28 09:34:58;;;;;;;69.88;4.65;;;6.40;1.00;;;;;;5019450;28;20169;-81
2023/03/28 09:37:31;;;;;;;72.05;4.32;;;6.40;1.00;;;;;;5020182;28;20641;-81
2023/03/28 09:40:11;;;;;;;68.63;4.18;;;6.60;1.00;;;;;;5020939;28;20202;-81
2023/03/28 09:42:43;;;;;;;67.70;4.15;;;6.70;1.00;;;;;;5020479;28;20217;-81
2023/03/28 09:45:38;;;;;;;68.43;4.55;;;6.60;1.00;;;;;;5018147;28;20200;-81
2023/03/28 09:48:10;;;;;;;64.80;3.20;;;6.70;1.00;;;;;;5020028;28;20185;-81
2023/03/28 09:50:36;;;;;;;67.00;3.35;;;7.00;1.00;;;;;;5020010;28;20257;-81
2023/03/28 09:53:02;;;;;;;69.20;4.28;;;6.90;1.00;;;;;;5019410;28;20262;-81
2023/03/28 09:55:30;;;;;;;66.40;3.80;;;7.20;1.00;;;;;;5019478;28;20189;-81
2023/03/28 09:58:01;;;;;;;67.85;3.67;;;7.40;1.00;;;;;;5018028;28;20180;-81
2023/03/28 10:00:28;;;;;;;64.90;3.50;;;7.60;1.00;;;;;;5019570;28;20202;-81
2023/03/28 10:02:54;;;;;;;65.10;3.78;;;7.60;1.00;;;;;;5017776;28;20240;-81
2023/03/28 10:05:39;;;;;;;65.82;3.60;;;7.80;1.00;;;;;;5018202;28;20166;-81
2023/03/28 10:08:32;;;;;;;66.53;3.75;;;7.80;1.00;;;;;;5019843;28;20147;-81
2023/03/28 10:11:01;;;;;;;67.18;3.80;;;7.90;1.00;;;;;;5009792;28;20653;-81
2023/03/28 10:13:35;;;;;;;67.25;3.45;;;8.20;1.00;;;;;;5019684;28;20244;-81
2023/03/28 10:16:02;;;;;;;66.35;3.65;;;8.40;1.00;;;;;;5019954;28;20182;-81
2023/03/28 10:18:30;;;;;;;67.65;3.85;;;8.50;1.00;;;;;;5019772;28;20165;-81
2023/03/28 10:20:55;;;;;;;66.80;3.65;;;8.40;1.00;;;;;;5018132;28;20190;-82
2023/03/28 10:23:23;;;;;;;68.50;3.83;;;8.30;1.00;;;;;;5018010;28;20716;-82
2023/03/28 10:25:52;;;;;;;65.68;3.35;;;8.40;1.00;;;;;;5018646;28;20166;-81
2023/03/28 10:28:27;;;;;;;65.30;3.47;;;8.60;1.00;;;;;;5019508;28;20158;-82
2023/03/28 10:31:00;;;;;;;66.40;4.57;;;8.60;1.00;;;;;;5017959;28;20161;-79
2023/03/28 10:33:56;;;;;;;68.82;3.70;;;8.60;1.00;;;;;;5017145;28;20189;-81
2023/03/28 10:36:36;;;;;;;66.85;3.90;;;8.70;1.00;;;;;;5001916;28;20185;-80
2023/03/28 10:39:20;;;;;;;70.63;3.65;;;9.00;1.00;;;;;;5017636;28;20169;-80
2023/03/28 10:41:58;;;;;;;68.97;3.20;;;9.30;1.00;;;;;;5018690;28;20244;-79
2023/03/28 10:44:29;;;;;;;66.55;3.42;;;9.50;1.00;;;;;;5017200;28;20185;-79
2023/03/28 10:47:01;;;;;;;66.82;3.35;;;9.80;1.00;;;;;;5018412;28;20158;-79
2023/03/28 10:49:37;;;;;;;67.05;3.13;;;10.10;1.00;;;;;;5019300;28;20172;-79
2023/03/28 10:52:19;;;;;;;66.25;3.20;;;10.00;1.00;;;;;;5017296;28;20177;-79
2023/03/28 10:54:59;;;;;;;66.55;3.20;;;9.80;1.00;;;;;;5018684;28;20158;-79
2023/03/28 10:57:54;;;;;;;68.15;3.85;;;9.40;1.00;;;;;;5018383;28;20158;-79
2023/03/28 11:00:37;;;;;;;65.50;3.17;;;9.60;1.00;;;;;;5001368;28;20209;-79
2023/03/28 11:03:21;;;;;;;67.22;3.53;;;9.40;1.00;;;;;;5017059;28;20201;-80
2023/03/28 11:05:55;;;;;;;65.75;2.75;;;9.30;1.00;;;;;;5018175;28;20173;-80
2023/03/28 11:08:34;;;;;;;69.75;3.97;;;9.20;1.00;;;;;;5016677;28;20162;-79
2023/03/28 11:11:35;;;;;;;67.82;3.90;;;9.30;1.00;;;;;;5017997;28;20514;-79
2023/03/28 11:14:34;;;;;;;66.47;3.90;;;9.50;1.00;;;;;;5018116;28;20265;-79
2023/03/28 11:17:21;;;;;;;69.30;3.47;;;9.60;1.00;;;;;;5018501;28;20154;-80
2023/03/28 11:20:16;;;;;;;67.55;3.92;;;9.80;1.00;;;;;;5018257;28;20563;-79
2023/03/28 11:23:35;;;;;;;66.40;4.57;;;10.00;1.00;;;;;;5017882;28;20178;-80
2023/03/28 11:26:09;;;;;;;69.55;4.63;;;10.40;1.00;;;;;;4938286;29;20675;-80
2023/03/28 11:28:49;;;;;;;68.10;4.00;;;10.20;1.00;;;;;;5015998;28;20178;-79
2023/03/28 11:31:23;;;;;;;65.78;3.80;;;10.30;1.00;;;;;;5018168;28;20177;-80
2023/03/28 11:34:13;;;;;;;68.53;3.97;;;10.40;1.00;;;;;;5016502;28;20213;-80
2023/03/28 11:37:03;;;;;;;66.45;4.35;;;10.10;1.00;;;;;;5018557;28;20201;-80
2023/03/28 11:39:55;;;;;;;67.63;3.85;;;9.80;1.00;;;;;;5018196;28;20154;-80
2023/03/28 11:42:34;;;;;;;66.05;3.70;;;9.90;1.00;;;;;;5016483;28;20648;-80
2023/03/28 11:45:23;;;;;;;65.97;4.47;;;9.70;1.00;;;;;;5017946;28;20158;-80
2023/03/28 11:48:24;;;;;;;68.32;4.30;;;9.70;1.00;;;;;;5017940;28;20625;-80
2023/03/28 11:51:08;;;;;;;68.43;3.63;;;10.10;1.00;;;;;;5017809;28;20578;-80
2023/03/28 11:53:56;;;;;;;67.15;4.07;;;10.50;1.00;;;;;;5082510;22;20229;-78
2023/03/28 11:56:43;;;;;;;65.70;3.97;;;10.10;1.00;;;;;;5014363;28;20157;-77
2023/03/28 11:59:18;;;;;;;66.75;3.92;;;10.10;1.00;;;;;;5014649;28;20253;-78
2023/03/28 12:01:49;;;;;;;67.30;5.15;;;10.10;1.00;;;;;;5016805;28;20660;-78
2023/03/28 12:04:24;;;;;;;69.40;3.47;;;10.00;1.00;;;;;;5014074;28;20229;-77
2023/03/28 12:07:05;;;;;;;66.93;3.85;;;10.20;1.00;;;;;;5014973;28;20243;-77
2023/03/28 12:09:57;;;;;;;67.10;3.92;;;10.50;1.00;;;;;;5016008;28;20150;-77
2023/03/28 12:12:35;;;;;;;68.82;4.30;;;10.90;1.00;;;;;;5016247;28;20874;-78
2023/03/28 12:15:09;;;;;;;65.93;4.10;;;10.90;1.00;;;;;;5014958;28;20154;-78
2023/03/28 12:17:44;;;;;;;67.90;4.25;;;10.80;1.00;;;;;;5015461;28;20233;-77
2023/03/28 12:20:21;;;;;;;66.28;4.30;;;10.70;1.00;;;;;;5013730;28;20547;-75
2023/03/28 12:22:52;;;;;;;67.15;4.90;;;11.00;1.00;;;;;;5014620;28;20208;-75
2023/03/28 12:25:46;;;;;;;69.00;3.67;;;11.60;1.00;;;;;;5017203;28;20245;-77
2023/03/28 12:28:38;;;;;;;66.75;3.78;;;11.70;1.00;;;;;;5018775;28;20142;-78
2023/03/28 12:31:29;;;;;;;68.90;3.88;;;12.10;1.00;;;;;;5017915;28;20161;-78
2023/03/28 12:34:02;;;;;;;67.13;3.50;;;12.60;1.00;;;;;;5018331;28;20182;-77
2023/03/28 12:36:47;;;;;;;68.93;3.78;;;12.10;1.00;;;;;;5018556;28;20194;-78
2023/03/28 12:39:34;;;;;;;66.90;3.67;;;11.90;1.00;;;;;;5017657;28;20151;-78
2023/03/28 12:42:03;;;;;;;68.93;4.00;;;11.70;1.00;;;;;;5016525;28;20188;-78
2023/03/28 12:44:43;;;;;;;67.00;3.63;;;11.70;1.00;;;;;;5016724;28;20172;-78
2023/03/28 12:47:33;;;;;;;67.50;3.70;;;11.80;1.00;;;;;;5017441;28;20157;-78
2023/03/28 12:50:05;;;;;;;67.60;4.07;;;11.30;1.00;;;;;;5016641;28;20631;-77
2023/03/28 12:52:33;;;;;;;67.95;3.42;;;11.50;1.00;;;;;;5017190;28;20231;-77
2023/03/28 12:55:03;;;;;;;66.72;3.10;;;11.40;1.00;;;;;;5016918;28;20193;-78
2023/03/28 12:57:44;;;;;;;71.55;3.60;;;11.20;1.00;;;;;;5017426;28;20185;-78
2023/03/28 13:00:21;;;;;;;66.38;3.80;;;11.30;1.00;;;;;;5017864;28;20192;-78
2023/03/28 13:02:52;;;;;;;69.20;3.83;;;11.50;1.00;;;;;;5018034;28;20236;-78
2023/03/28 13:05:30;;;;;;;69.40;3.97;;;11.70;1.00;;;;;;5016600;28;20216;-75
2023/03/28 13:08:25;;;;;;;66.70;3.50;;;11.50;1.00;;;;;;5016389;28;20150;-75
2023/03/28 13:11:00;;;;;;;69.05;4.05;;;11.60;1.00;;;;;;5016259;28;20143;-75
2023/03/28 13:13:45;;;;;;;68.05;3.70;;;11.40;1.00;;;;;;5015918;28;20280;-75
2023/03/28 13:16:23;;;;;;;70.70;4.63;;;11.40;1.00;;;;;;5014670;28;20716;-75